createdAt,value
2017-09-02T00:00:18.622Z,89.00
2017-09-02T00:02:46.183Z,89.30
2017-09-02T00:05:13.773Z,88.80
2017-09-02T00:07:41.337Z,88.20
2017-09-02T00:10:08.888Z,88.30
2017-09-02T00:12:36.479Z,87.80
2017-09-02T00:15:04.037Z,87.80
2017-09-02T00:17:31.630Z,87.80
2017-09-02T00:19:59.935Z,87.50
2017-09-02T00:22:27.494Z,87.40
2017-09-02T00:24:55.075Z,87.40
2017-09-02T00:27:22.629Z,87.50
2017-09-02T00:29:50.231Z,87.20
2017-09-02T00:32:17.776Z,88.10
2017-09-02T00:34:45.343Z,88.10
2017-09-02T00:37:12.921Z,88.00
2017-09-02T00:39:40.495Z,87.90
2017-09-02T00:42:08.106Z,88.10
2017-09-02T00:44:35.671Z,87.40
2017-09-02T00:47:03.226Z,88.00
2017-09-02T00:49:30.813Z,87.80
2017-09-02T00:51:58.408Z,88.50
2017-09-02T00:54:26.005Z,88.70
2017-09-02T00:56:53.636Z,88.40
2017-09-02T00:59:21.180Z,88.20
2017-09-02T01:01:48.766Z,88.40
2017-09-02T01:04:16.329Z,88.60
2017-09-02T01:06:43.952Z,88.60
2017-09-02T01:09:11.514Z,88.80
2017-09-02T01:11:39.068Z,89.30
2017-09-02T01:14:06.663Z,89.20
2017-09-02T01:16:34.234Z,88.50
2017-09-02T01:19:01.826Z,88.80
2017-09-02T01:21:29.388Z,88.70
2017-09-02T01:23:56.953Z,89.00
2017-09-02T01:26:24.553Z,88.60
2017-09-02T01:28:52.131Z,88.40
2017-09-02T01:31:19.735Z,88.60
2017-09-02T01:33:47.288Z,88.90
2017-09-02T01:36:14.845Z,88.80
2017-09-02T01:38:43.209Z,88.90
2017-09-02T01:41:10.761Z,88.90
2017-09-02T01:43:38.348Z,89.00
2017-09-02T01:46:05.906Z,89.00
2017-09-02T01:48:33.469Z,89.00
2017-09-02T01:51:01.065Z,89.30
2017-09-02T01:53:28.625Z,88.80
2017-09-02T01:55:56.196Z,89.10
2017-09-02T01:58:23.749Z,89.50
2017-09-02T02:00:51.327Z,89.30
2017-09-02T02:03:18.908Z,88.80
2017-09-02T02:05:46.477Z,89.40
2017-09-02T02:08:14.065Z,89.10
2017-09-02T02:10:41.641Z,89.80
2017-09-02T02:13:09.221Z,88.80
2017-09-02T02:15:36.786Z,89.40
2017-09-02T02:18:04.363Z,88.20
2017-09-02T02:20:31.925Z,88.30
2017-09-02T02:22:59.512Z,88.20
2017-09-02T02:25:27.059Z,87.70
2017-09-02T02:27:54.634Z,88.20
2017-09-02T02:30:22.215Z,87.60
2017-09-02T02:32:49.781Z,87.60
2017-09-02T02:35:17.389Z,87.50
2017-09-02T02:37:44.937Z,87.80
2017-09-02T02:40:12.513Z,87.10
2017-09-02T02:42:40.074Z,87.20
2017-09-02T02:45:07.657Z,87.30
2017-09-02T02:47:35.225Z,86.90
2017-09-02T02:50:02.809Z,86.80
2017-09-02T02:52:30.363Z,86.90
2017-09-02T02:54:57.904Z,86.70
2017-09-02T02:57:25.490Z,86.60
2017-09-02T02:59:53.036Z,86.60
2017-09-02T03:02:20.624Z,86.80
2017-09-02T03:04:48.181Z,87.30
2017-09-02T03:07:15.771Z,87.10
2017-09-02T03:09:43.330Z,87.40
2017-09-02T03:12:10.922Z,87.20
2017-09-02T03:14:38.490Z,87.50
2017-09-02T03:17:06.049Z,87.20
2017-09-02T03:19:33.641Z,87.60
2017-09-02T03:22:01.211Z,87.40
2017-09-02T03:24:28.790Z,87.20
2017-09-02T03:26:56.353Z,87.50
2017-09-02T03:29:23.933Z,88.10
2017-09-02T03:31:51.509Z,87.80
2017-09-02T03:34:19.095Z,88.00
2017-09-02T03:36:46.635Z,87.30
2017-09-02T03:39:14.219Z,87.60
2017-09-02T03:41:41.768Z,87.90
2017-09-02T03:44:09.318Z,88.30
2017-09-02T03:46:36.897Z,87.90
2017-09-02T03:49:04.445Z,87.40
2017-09-02T03:51:32.020Z,87.80
2017-09-02T03:53:59.572Z,87.90
2017-09-02T03:56:27.140Z,88.00
2017-09-02T03:58:54.683Z,87.80
2017-09-02T04:01:22.277Z,87.80
2017-09-02T04:03:49.838Z,87.90
2017-09-02T04:06:17.379Z,88.00
2017-09-02T04:08:44.963Z,87.80
2017-09-02T04:11:12.528Z,88.30
2017-09-02T04:13:40.105Z,88.70
2017-09-02T04:16:08.437Z,87.90
2017-09-02T04:18:36.000Z,87.90
2017-09-02T04:21:03.566Z,88.10
2017-09-02T04:23:31.149Z,88.00
2017-09-02T04:25:58.695Z,87.80
2017-09-02T04:28:26.277Z,88.10
2017-09-02T04:30:53.825Z,88.10
2017-09-02T04:33:21.381Z,88.10
2017-09-02T04:35:48.965Z,88.30
2017-09-02T04:38:16.525Z,89.10
2017-09-02T04:40:44.100Z,88.20
2017-09-02T04:43:11.653Z,88.60
2017-09-02T04:45:39.236Z,88.70
2017-09-02T04:48:06.789Z,88.60
2017-09-02T04:50:34.375Z,88.40
2017-09-02T04:53:01.957Z,88.00
2017-09-02T04:55:29.514Z,88.50
2017-09-02T04:57:57.117Z,88.50
2017-09-02T05:00:24.710Z,88.10
2017-09-02T05:02:52.285Z,88.00
2017-09-02T05:05:19.846Z,87.50
2017-09-02T05:07:47.434Z,87.50
2017-09-02T05:10:14.979Z,87.90
2017-09-02T05:12:42.545Z,87.40
2017-09-02T05:15:10.114Z,87.80
2017-09-02T05:17:37.709Z,87.40
2017-09-02T05:20:05.252Z,87.00
2017-09-02T05:22:32.795Z,87.70
2017-09-02T05:25:00.359Z,87.40
2017-09-02T05:27:27.907Z,86.80
2017-09-02T05:29:55.473Z,87.10
2017-09-02T05:32:23.023Z,87.10
2017-09-02T05:34:50.632Z,87.40
2017-09-02T05:37:18.179Z,87.40
2017-09-02T05:39:45.749Z,87.20
2017-09-02T05:42:13.297Z,86.90
2017-09-02T05:44:40.853Z,86.70
2017-09-02T05:47:08.421Z,87.20
2017-09-02T05:49:35.973Z,88.00
2017-09-02T05:52:03.536Z,87.90
2017-09-02T05:54:31.100Z,88.20
2017-09-02T05:56:58.686Z,87.60
2017-09-02T05:59:26.233Z,87.80
2017-09-02T06:01:53.826Z,87.80
2017-09-02T06:04:21.395Z,87.70
2017-09-02T06:06:48.959Z,87.40
2017-09-02T06:09:16.533Z,87.80
2017-09-02T06:11:44.103Z,88.20
2017-09-02T06:14:11.678Z,88.60
2017-09-02T06:16:39.220Z,89.30
2017-09-02T06:19:06.801Z,88.80
2017-09-02T06:21:34.356Z,88.30
2017-09-02T06:24:01.937Z,89.10
2017-09-02T06:26:29.498Z,89.10
2017-09-02T06:28:57.088Z,89.20
2017-09-02T06:31:24.636Z,89.40
2017-09-02T06:33:52.172Z,89.60
2017-09-02T06:36:19.736Z,89.50
2017-09-02T06:38:47.289Z,89.60
2017-09-02T06:41:14.884Z,89.50
2017-09-02T06:43:42.444Z,89.30
2017-09-02T06:46:10.038Z,89.50
2017-09-02T06:48:37.600Z,89.10
2017-09-02T06:51:05.172Z,89.30
2017-09-02T06:53:32.721Z,89.20
2017-09-02T06:56:00.271Z,89.30
2017-09-02T06:58:27.836Z,89.30
2017-09-02T07:00:55.392Z,89.50
2017-09-02T07:03:22.984Z,89.10
2017-09-02T07:05:50.555Z,89.00
2017-09-02T07:08:18.119Z,88.70
2017-09-02T07:10:45.678Z,88.70
2017-09-02T07:13:13.261Z,88.30
2017-09-02T07:15:40.831Z,87.30
2017-09-02T07:18:08.409Z,88.00
2017-09-02T07:20:35.989Z,87.60
2017-09-02T07:23:03.548Z,88.30
2017-09-02T07:25:31.121Z,87.90
2017-09-02T07:27:58.659Z,88.70
2017-09-02T07:30:26.244Z,88.10
2017-09-02T07:32:53.803Z,87.70
2017-09-02T07:35:21.367Z,87.70
2017-09-02T07:37:48.915Z,88.00
2017-09-02T07:40:16.510Z,87.80
2017-09-02T07:42:44.061Z,88.10
2017-09-02T07:45:11.618Z,88.20
2017-09-02T07:47:39.183Z,88.00
2017-09-02T07:50:06.727Z,88.00
2017-09-02T07:52:34.301Z,87.50
2017-09-02T07:55:01.859Z,87.50
2017-09-02T07:57:29.424Z,87.80
2017-09-02T07:59:56.993Z,87.80
2017-09-02T08:02:24.601Z,87.70
2017-09-02T08:04:52.172Z,87.30
2017-09-02T08:07:19.728Z,87.50
2017-09-02T08:09:47.291Z,87.70
2017-09-02T08:12:14.866Z,88.10
2017-09-02T08:14:42.445Z,87.50
2017-09-02T08:17:10.009Z,87.00
2017-09-02T08:19:37.590Z,87.10
2017-09-02T08:22:05.155Z,87.70
2017-09-02T08:24:32.728Z,87.70
2017-09-02T08:27:00.295Z,87.50
2017-09-02T08:29:27.886Z,87.30
2017-09-02T08:31:55.437Z,88.00
2017-09-02T08:34:22.989Z,87.80
2017-09-02T08:36:50.579Z,88.20
2017-09-02T08:39:18.129Z,87.50
2017-09-02T08:41:45.709Z,87.80
2017-09-02T08:44:14.024Z,88.30
2017-09-02T08:46:41.617Z,88.20
2017-09-02T08:49:09.189Z,88.40
2017-09-02T08:51:36.776Z,88.80
2017-09-02T08:54:05.097Z,88.90
2017-09-02T08:56:32.640Z,88.90
2017-09-02T08:59:00.235Z,88.90
2017-09-02T09:01:27.803Z,88.60
2017-09-02T09:03:55.377Z,88.80
2017-09-02T09:06:22.939Z,88.80
2017-09-02T09:08:50.512Z,88.60
2017-09-02T09:11:18.070Z,86.40
2017-09-02T09:13:45.664Z,86.30
2017-09-02T09:16:13.217Z,86.20
2017-09-02T09:18:40.801Z,85.70
2017-09-02T09:21:08.371Z,85.70
2017-09-02T09:23:35.945Z,85.70
2017-09-02T09:26:03.508Z,86.40
2017-09-02T09:28:31.065Z,86.90
2017-09-02T09:30:58.641Z,86.40
2017-09-02T09:33:26.187Z,85.90
2017-09-02T09:35:53.774Z,86.80
2017-09-02T09:38:22.086Z,87.00
2017-09-02T09:40:49.664Z,87.00
2017-09-02T09:43:17.223Z,85.80
2017-09-02T09:45:44.789Z,86.30
2017-09-02T09:48:12.400Z,86.80
2017-09-02T09:50:39.957Z,85.60
2017-09-02T09:53:07.531Z,85.10
2017-09-02T09:55:35.723Z,86.40
2017-09-02T09:58:03.298Z,88.10
2017-09-02T10:00:30.849Z,87.40
2017-09-02T10:02:58.439Z,87.10
2017-09-02T10:05:25.984Z,86.90
2017-09-02T10:07:53.569Z,86.50
2017-09-02T10:10:21.135Z,85.70
2017-09-02T10:12:49.464Z,84.20
2017-09-02T10:15:17.032Z,84.10
2017-09-02T10:17:44.602Z,84.00
2017-09-02T10:20:12.183Z,82.80
2017-09-02T10:22:39.756Z,84.50
2017-09-02T10:25:07.387Z,84.60
2017-09-02T10:27:34.932Z,85.20
2017-09-02T10:30:02.511Z,85.50
2017-09-02T10:32:30.051Z,84.20
2017-09-02T10:34:57.605Z,84.80
2017-09-02T10:37:25.179Z,84.60
2017-09-02T10:39:52.728Z,83.10
2017-09-02T10:42:20.302Z,82.50
2017-09-02T10:44:47.871Z,81.70
2017-09-02T10:47:15.449Z,80.90
2017-09-02T10:49:43.010Z,82.50
2017-09-02T10:52:10.595Z,78.50
2017-09-02T10:54:38.139Z,79.50
2017-09-02T10:57:05.708Z,78.30
2017-09-02T10:59:33.262Z,80.10
2017-09-02T11:02:00.816Z,82.20
2017-09-02T11:04:28.378Z,81.30
2017-09-02T11:06:55.940Z,81.30
2017-09-02T11:09:23.503Z,82.50
2017-09-02T11:11:51.064Z,83.90
2017-09-02T11:14:18.641Z,84.10
2017-09-02T11:16:46.193Z,87.00
2017-09-02T11:19:13.754Z,82.90
2017-09-02T11:21:41.319Z,80.40
2017-09-02T11:24:08.876Z,82.60
2017-09-02T11:26:36.449Z,79.60
2017-09-02T11:29:04.008Z,79.90
2017-09-02T11:31:31.599Z,76.40
2017-09-02T11:33:59.154Z,78.70
2017-09-02T11:36:26.730Z,82.60
2017-09-02T11:38:54.289Z,75.50
2017-09-02T11:41:21.883Z,77.40
2017-09-02T11:43:49.438Z,78.20
2017-09-02T11:46:17.011Z,80.40
2017-09-02T11:48:44.551Z,77.40
2017-09-02T11:51:12.094Z,75.60
2017-09-02T11:53:39.659Z,77.70
2017-09-02T11:56:07.219Z,76.90
2017-09-02T11:58:35.556Z,78.20
2017-09-02T12:01:03.126Z,78.20
2017-09-02T12:03:30.709Z,77.30
2017-09-02T12:05:58.266Z,79.10
2017-09-02T12:08:25.835Z,78.60
2017-09-02T12:10:53.380Z,77.80
2017-09-02T12:13:20.973Z,78.80
2017-09-02T12:15:48.528Z,77.80
2017-09-02T12:18:16.081Z,76.90
2017-09-02T12:20:43.657Z,75.30
2017-09-02T12:23:11.211Z,74.60
2017-09-02T12:25:38.791Z,74.00
2017-09-02T12:28:06.341Z,75.50
2017-09-02T12:30:33.928Z,76.00
2017-09-02T12:33:01.488Z,77.00
2017-09-02T12:35:29.078Z,79.30
2017-09-02T12:37:57.391Z,76.50
2017-09-02T12:40:24.941Z,76.50
2017-09-02T12:42:52.513Z,74.40
2017-09-02T12:45:20.071Z,75.00
2017-09-02T12:47:47.635Z,74.30
2017-09-02T12:50:15.205Z,75.30
2017-09-02T12:52:42.778Z,74.00
2017-09-02T12:55:10.361Z,74.60
2017-09-02T12:57:37.962Z,73.30
2017-09-02T13:00:05.514Z,77.50
2017-09-02T13:02:33.076Z,75.00
2017-09-02T13:05:00.657Z,75.80
2017-09-02T13:07:28.228Z,75.50
2017-09-02T13:09:55.814Z,75.10
2017-09-02T13:12:23.383Z,74.80
2017-09-02T13:14:50.963Z,78.30
2017-09-02T13:17:18.503Z,77.40
2017-09-02T13:19:46.095Z,78.20
2017-09-02T13:22:13.658Z,78.90
2017-09-02T13:24:41.266Z,77.40
2017-09-02T13:27:08.825Z,80.50
2017-09-02T13:29:36.374Z,79.00
2017-09-02T13:32:03.958Z,78.80
2017-09-02T13:34:31.533Z,78.80
2017-09-02T13:36:59.125Z,78.90
2017-09-02T13:39:26.695Z,77.80
2017-09-02T13:41:54.285Z,78.20
2017-09-02T13:44:21.837Z,78.00
2017-09-02T13:46:49.425Z,77.80
2017-09-02T13:49:16.963Z,77.80
2017-09-02T13:51:44.509Z,79.50
2017-09-02T13:54:12.083Z,78.90
2017-09-02T13:56:39.647Z,78.10
2017-09-02T13:59:07.234Z,77.00
2017-09-02T14:01:34.779Z,77.10
2017-09-02T14:04:02.362Z,77.10
2017-09-02T14:06:29.917Z,77.20
2017-09-02T14:08:57.531Z,77.40
2017-09-02T14:11:25.106Z,77.80
2017-09-02T14:13:52.710Z,78.90
2017-09-02T14:16:21.046Z,78.50
2017-09-02T14:18:48.600Z,78.40
2017-09-02T14:21:16.173Z,78.30
2017-09-02T14:23:43.730Z,78.40
2017-09-02T14:26:11.313Z,78.10
2017-09-02T14:28:38.863Z,78.80
2017-09-02T14:31:06.468Z,79.60
2017-09-02T14:33:34.016Z,80.90
2017-09-02T14:36:01.630Z,79.80
2017-09-02T14:38:29.179Z,80.60
2017-09-02T14:40:56.737Z,81.80
2017-09-02T14:43:24.326Z,82.20
2017-09-02T14:45:51.869Z,81.00
2017-09-02T14:48:19.456Z,81.70
2017-09-02T14:50:47.787Z,82.70
2017-09-02T14:53:15.387Z,82.60
2017-09-02T14:55:43.701Z,82.20
2017-09-02T14:58:11.280Z,82.10
2017-09-02T15:00:38.835Z,82.70
2017-09-02T15:03:06.419Z,82.50
2017-09-02T15:05:33.981Z,83.20
2017-09-02T15:08:01.530Z,83.60
2017-09-02T15:10:29.100Z,84.40
2017-09-02T15:12:56.667Z,82.40
2017-09-02T15:15:24.525Z,82.10
2017-09-02T15:17:52.108Z,83.30
2017-09-02T15:20:19.697Z,83.10
2017-09-02T15:22:47.249Z,82.30
2017-09-02T15:25:14.833Z,83.80
2017-09-02T15:27:43.977Z,82.90
2017-09-02T15:30:12.439Z,83.50
2017-09-02T15:32:40.022Z,83.90
2017-09-02T15:35:07.571Z,83.20
2017-09-02T15:37:35.163Z,83.20
2017-09-02T15:40:02.746Z,83.30
2017-09-02T15:42:30.337Z,83.40
2017-09-02T15:44:57.903Z,83.60
2017-09-02T15:47:25.489Z,83.20
2017-09-02T15:49:53.054Z,82.90
2017-09-02T15:52:20.636Z,82.70
2017-09-02T15:54:48.197Z,83.00
2017-09-02T15:57:15.735Z,84.90
2017-09-02T15:59:43.323Z,84.10
2017-09-02T16:02:10.892Z,83.60
2017-09-02T16:04:38.469Z,83.40
2017-09-02T16:07:06.030Z,82.30
2017-09-02T16:09:33.612Z,81.60
2017-09-02T16:12:01.197Z,82.30
2017-09-02T16:14:28.798Z,82.70
2017-09-02T16:16:56.390Z,82.50
2017-09-02T16:19:23.946Z,83.00
2017-09-02T16:21:51.512Z,82.90
2017-09-02T16:24:19.070Z,82.80
2017-09-02T16:26:46.653Z,83.40
2017-09-02T16:29:14.231Z,83.70
2017-09-02T16:31:41.812Z,84.90
2017-09-02T16:34:09.368Z,84.50
2017-09-02T16:36:36.951Z,83.60
2017-09-02T16:39:04.530Z,83.80
2017-09-02T16:41:32.892Z,83.00
2017-09-02T16:44:00.462Z,83.00
2017-09-02T16:46:28.007Z,83.00
2017-09-02T16:48:56.497Z,83.30
2017-09-02T16:51:24.061Z,83.20
2017-09-02T16:53:51.667Z,83.30
2017-09-02T16:56:19.370Z,84.30
2017-09-02T16:58:46.987Z,85.50
2017-09-02T17:01:14.575Z,85.50
2017-09-02T17:03:42.176Z,85.70
2017-09-02T17:06:09.763Z,85.00
2017-09-02T17:08:37.350Z,84.80
2017-09-02T17:11:04.942Z,84.60
2017-09-02T17:13:32.515Z,85.00
2017-09-02T17:16:00.112Z,84.80
2017-09-02T17:18:27.682Z,84.40
2017-09-02T17:20:55.646Z,84.20
2017-09-02T17:23:23.234Z,83.40
2017-09-02T17:25:50.805Z,83.60
2017-09-02T17:28:18.407Z,84.20
2017-09-02T17:30:46.004Z,83.80
2017-09-02T17:33:13.562Z,84.50
2017-09-02T17:35:41.146Z,85.50
2017-09-02T17:38:08.736Z,85.60
2017-09-02T17:40:36.297Z,85.10
2017-09-02T17:43:03.877Z,85.40
2017-09-02T17:45:31.423Z,85.80
2017-09-02T17:47:59.003Z,85.30
2017-09-02T17:50:26.561Z,86.20
2017-09-02T17:52:54.148Z,86.40
2017-09-02T17:55:21.724Z,85.50
2017-09-02T17:57:49.336Z,85.20
2017-09-02T18:00:16.909Z,84.80
2017-09-02T18:02:44.462Z,84.40
2017-09-02T18:05:12.049Z,83.90
2017-09-02T18:07:39.614Z,83.90
2017-09-02T18:10:07.192Z,84.10
2017-09-02T18:12:34.750Z,83.40
2017-09-02T18:15:02.385Z,83.30
2017-09-02T18:17:29.941Z,83.40
2017-09-02T18:19:57.543Z,83.00
2017-09-02T18:22:25.111Z,84.40
2017-09-02T18:27:43.291Z,84.10
2017-09-02T18:30:10.835Z,84.00
2017-09-02T18:32:38.404Z,84.50
2017-09-02T18:35:05.960Z,84.40
2017-09-02T18:37:33.536Z,84.00
2017-09-02T18:40:01.077Z,83.60
2017-09-02T18:42:28.644Z,83.50
2017-09-02T18:44:56.204Z,83.70
2017-09-02T18:47:24.159Z,83.90
2017-09-02T18:49:51.716Z,84.10
2017-09-02T18:52:19.299Z,84.90
2017-09-02T18:54:46.883Z,85.80
2017-09-02T18:57:14.436Z,86.10
2017-09-02T18:59:42.013Z,86.20
2017-09-02T19:02:09.559Z,86.30
2017-09-02T19:04:37.134Z,86.70
2017-09-02T19:07:04.694Z,87.20
2017-09-02T19:09:32.285Z,87.10
2017-09-02T19:11:59.837Z,86.60
2017-09-02T19:14:27.415Z,86.70
2017-09-02T19:16:54.993Z,86.60
2017-09-02T19:19:22.547Z,86.30
2017-09-02T19:21:50.119Z,85.60
2017-09-02T19:24:17.669Z,85.80
2017-09-02T19:26:45.245Z,85.70
2017-09-02T19:29:12.801Z,85.90
2017-09-02T19:31:40.394Z,85.40
2017-09-02T19:34:07.950Z,84.80
2017-09-02T19:36:35.536Z,84.40
2017-09-02T19:39:03.141Z,84.40
2017-09-02T19:41:30.697Z,84.20
2017-09-02T19:43:58.278Z,83.40
2017-09-02T19:46:25.830Z,84.60
2017-09-02T19:48:53.399Z,85.40
2017-09-02T19:51:20.952Z,86.00
2017-09-02T19:53:48.529Z,86.60
2017-09-02T19:56:16.081Z,86.90
2017-09-02T19:58:43.664Z,86.60
2017-09-02T20:01:11.223Z,85.50
2017-09-02T20:03:38.795Z,86.60
2017-09-02T20:06:06.375Z,86.40
2017-09-02T20:08:33.943Z,85.80
2017-09-02T20:11:01.551Z,85.50
2017-09-02T20:13:29.104Z,85.50
2017-09-02T20:15:56.677Z,86.30
2017-09-02T20:18:24.254Z,86.10
2017-09-02T20:20:51.841Z,85.10
2017-09-02T20:23:19.390Z,85.80
2017-09-02T20:25:47.701Z,85.10
2017-09-02T20:28:15.266Z,85.00
2017-09-02T20:30:42.824Z,85.50
2017-09-02T20:33:10.411Z,86.20
2017-09-02T20:35:37.962Z,86.80
2017-09-02T20:38:05.547Z,87.10
2017-09-02T20:40:33.117Z,87.00
2017-09-02T20:43:00.698Z,86.40
2017-09-02T20:45:28.261Z,86.00
2017-09-02T20:47:57.713Z,86.20
2017-09-02T20:50:27.689Z,85.60
2017-09-02T20:52:55.231Z,84.60
2017-09-02T20:55:22.805Z,85.20
2017-09-02T20:57:50.351Z,85.80
2017-09-02T21:00:17.962Z,85.90
2017-09-02T21:02:45.504Z,85.90
2017-09-02T21:05:13.072Z,85.60
2017-09-02T21:07:40.660Z,85.20
2017-09-02T21:10:08.242Z,86.00
2017-09-02T21:12:35.797Z,87.30
2017-09-02T21:15:03.371Z,86.70
2017-09-02T21:17:30.917Z,86.60
2017-09-02T21:19:58.473Z,86.70
2017-09-02T21:22:28.493Z,87.00
2017-09-02T21:24:57.461Z,86.20
2017-09-02T21:27:25.037Z,85.90
2017-09-02T21:29:52.597Z,85.30
2017-09-02T21:32:20.168Z,85.70
2017-09-02T21:34:47.741Z,85.20
2017-09-02T21:37:16.866Z,85.20
2017-09-02T21:39:44.430Z,84.80
2017-09-02T21:42:11.990Z,84.70
2017-09-02T21:44:39.569Z,84.60
2017-09-02T21:47:07.141Z,84.70
2017-09-02T21:49:34.711Z,84.90
2017-09-02T21:52:02.255Z,84.80
2017-09-02T21:54:29.842Z,85.10
2017-09-02T21:56:57.410Z,85.50
2017-09-02T21:59:24.980Z,85.60
2017-09-02T22:01:52.533Z,86.00
2017-09-02T22:04:20.127Z,86.80
2017-09-02T22:06:47.717Z,87.20
2017-09-02T22:09:15.287Z,86.60
2017-09-02T22:11:42.866Z,86.10
2017-09-02T22:14:10.412Z,85.60
2017-09-02T22:16:38.008Z,86.10
2017-09-02T22:19:05.560Z,86.80
2017-09-02T22:21:33.155Z,85.90
2017-09-02T22:24:00.713Z,85.90
2017-09-02T22:26:28.310Z,86.60
2017-09-02T22:28:55.873Z,87.20
2017-09-02T22:31:23.425Z,87.50
2017-09-02T22:33:50.997Z,88.00
2017-09-02T22:36:19.308Z,86.70
2017-09-02T22:38:46.899Z,86.70
2017-09-02T22:41:14.457Z,86.30
2017-09-02T22:43:42.043Z,86.10
2017-09-02T22:46:09.597Z,85.70
2017-09-02T22:48:37.197Z,86.20
2017-09-02T22:51:04.763Z,85.80
2017-09-02T22:53:32.347Z,85.70
2017-09-02T22:55:59.891Z,85.50
2017-09-02T22:58:27.449Z,86.60
2017-09-02T23:00:55.038Z,87.50
2017-09-02T23:03:22.592Z,88.10
2017-09-02T23:05:50.185Z,88.10
2017-09-02T23:08:18.508Z,87.40
2017-09-02T23:10:46.090Z,88.00
2017-09-02T23:13:13.663Z,87.20
2017-09-02T23:15:41.234Z,87.80
2017-09-02T23:18:08.794Z,87.60
2017-09-02T23:20:36.392Z,87.40
2017-09-02T23:23:03.964Z,88.00
2017-09-02T23:25:31.547Z,88.10
2017-09-02T23:27:59.133Z,87.50
2017-09-02T23:30:26.699Z,87.80
2017-09-02T23:32:54.281Z,87.70
2017-09-02T23:35:21.837Z,87.60
2017-09-02T23:37:49.421Z,88.10
2017-09-02T23:40:16.984Z,87.70
2017-09-02T23:42:44.576Z,87.50
2017-09-02T23:45:12.140Z,87.30
2017-09-02T23:47:39.697Z,87.00
2017-09-02T23:50:07.281Z,86.90
2017-09-02T23:52:34.849Z,87.70
2017-09-02T23:55:03.193Z,88.40
2017-09-02T23:57:30.749Z,88.40
2017-09-02T23:59:58.337Z,88.00
